Time;durP1;ratioP1;P1;durP2;ratioP2;P2;SDS_P1;SDS_P2;PMS_P1;PMS_P2;Temp;Humidity;BMP_temperature;BMP_pressure;BME280_temperature;BME280_humidity;BME280_pressure;Samples;Min_cycle;Max_cycle;Signal;HPM_P1;HPM_P2
2021/01/22 00:01:11;;;;;;;5.47;1.88;;;5.40;98.00;;;;;;5038048;28;20030;-71
2021/01/22 00:03:37;;;;;;;4.32;2.20;;;5.50;98.00;;;;;;5038105;28;20021;-71
2021/01/22 00:06:04;;;;;;;3.92;1.92;;;5.50;98.00;;;;;;5038046;28;20033;-71
2021/01/22 00:08:29;;;;;;;3.38;1.98;;;5.50;98.00;;;;;;5038206;28;20429;-71
2021/01/22 00:10:55;;;;;;;5.65;2.13;;;5.50;98.00;;;;;;5037845;28;20032;-71
2021/01/22 00:13:20;;;;;;;1.70;1.30;;;5.50;98.00;;;;;;5038169;28;20036;-71
2021/01/22 00:15:46;;;;;;;2.38;1.58;;;5.50;98.00;;;;;;5038071;28;20033;-71
2021/01/22 00:18:12;;;;;;;3.22;1.50;;;5.50;98.00;;;;;;5037983;28;20096;-71
2021/01/22 00:20:37;;;;;;;1.92;1.50;;;5.50;98.00;;;;;;5037691;28;20037;-71
2021/01/22 00:23:04;;;;;;;353.98;13.32;;;5.50;98.00;;;;;;5037628;28;20048;-71
2021/01/22 00:25:30;;;;;;;541.08;27.17;;;5.50;98.00;;;;;;5037515;28;20071;-71
2021/01/22 00:27:56;;;;;;;653.75;28.25;;;5.50;98.00;;;;;;5037573;28;20433;-71
2021/01/22 00:30:22;;;;;;;209.30;7.75;;;5.50;98.00;;;;;;5037588;28;20033;-71
2021/01/22 00:32:47;;;;;;;27.65;2.53;;;5.50;98.00;;;;;;5036437;28;20322;-71
2021/01/22 00:35:13;;;;;;;2.65;1.20;;;5.40;98.00;;;;;;5037413;28;20033;-71
2021/01/22 00:37:39;;;;;;;3.50;1.73;;;5.40;98.00;;;;;;5037493;28;20024;-71
2021/01/22 00:40:06;;;;;;;6.88;1.88;;;5.40;98.00;;;;;;5037638;28;20103;-70
2021/01/22 00:42:33;;;;;;;8.90;2.75;;;5.50;98.00;;;;;;5037419;28;20029;-70
2021/01/22 00:45:00;;;;;;;19.67;3.40;;;5.50;98.00;;;;;;5036651;28;20113;-70
2021/01/22 00:47:25;;;;;;;90.80;5.75;;;5.60;98.00;;;;;;5037565;28;20037;-70
2021/01/22 00:49:51;;;;;;;46.97;3.92;;;5.60;98.00;;;;;;5037246;28;20373;-71
2021/01/22 00:52:17;;;;;;;4.50;1.77;;;5.60;98.00;;;;;;5037217;28;20406;-71
2021/01/22 00:54:44;;;;;;;6.88;1.80;;;5.70;98.00;;;;;;5037143;28;20468;-71
2021/01/22 00:57:09;;;;;;;5.07;1.90;;;5.70;98.00;;;;;;5037159;28;20029;-71
2021/01/22 00:59:35;;;;;;;3.55;2.15;;;5.60;98.00;;;;;;5037074;28;20103;-70
2021/01/22 01:02:01;;;;;;;5.45;2.20;;;5.50;98.00;;;;;;5036971;28;20107;-71
2021/01/22 01:04:26;;;;;;;3.55;1.75;;;5.70;98.00;;;;;;5035978;28;20353;-71
2021/01/22 01:06:52;;;;;;;7.47;2.28;;;5.70;98.00;;;;;;5035903;28;20017;-71
2021/01/22 01:09:18;;;;;;;3.00;1.83;;;5.60;98.00;;;;;;5037170;28;20029;-71
2021/01/22 01:11:44;;;;;;;44.75;3.72;;;5.60;98.00;;;;;;5037151;28;20075;-71
2021/01/22 01:14:10;;;;;;;187.23;8.60;;;5.60;98.00;;;;;;5036803;28;20321;-71
2021/01/22 01:16:35;;;;;;;317.73;14.40;;;5.60;98.00;;;;;;5036808;28;20032;-71
2021/01/22 01:19:02;;;;;;;5.18;2.75;;;5.60;98.00;;;;;;5036845;28;20026;-71
2021/01/22 01:21:28;;;;;;;4.45;2.22;;;5.50;98.00;;;;;;5036819;28;20025;-71
2021/01/22 01:23:53;;;;;;;5.43;1.73;;;5.50;98.00;;;;;;5036694;28;20041;-71
2021/01/22 01:26:20;;;;;;;2.22;1.42;;;5.50;98.00;;;;;;5035817;28;20017;-71
2021/01/22 01:28:46;;;;;;;5.53;3.92;;;5.50;98.00;;;;;;5036615;28;20381;-71
2021/01/22 01:31:12;;;;;;;8.20;3.90;;;5.60;98.00;;;;;;5036647;28;20025;-71
2021/01/22 01:33:38;;;;;;;3.80;2.00;;;5.60;98.00;;;;;;5036616;28;20055;-71
2021/01/22 01:36:04;;;;;;;4.00;2.58;;;5.60;98.00;;;;;;5036624;28;20029;-71
2021/01/22 01:38:30;;;;;;;6.38;2.90;;;5.60;98.00;;;;;;5036862;28;20030;-71
2021/01/22 01:40:57;;;;;;;4.60;3.00;;;5.70;98.00;;;;;;5036614;28;20088;-71
2021/01/22 01:43:22;;;;;;;5.65;2.90;;;5.80;98.00;;;;;;5036570;28;20053;-71
2021/01/22 01:45:48;;;;;;;6.38;3.85;;;5.90;98.00;;;;;;5036588;28;20044;-71
2021/01/22 01:48:16;;;;;;;10.90;3.80;;;5.90;98.00;;;;;;5036479;28;20436;-71
2021/01/22 01:50:42;;;;;;;6.40;3.22;;;5.90;98.00;;;;;;5036493;28;20050;-71
2021/01/22 01:53:09;;;;;;;6.80;3.60;;;5.90;98.00;;;;;;5036374;28;20080;-71
2021/01/22 01:55:35;;;;;;;16.65;4.00;;;5.90;98.00;;;;;;5036759;28;20429;-71
2021/01/22 01:58:05;;;;;;;13.43;3.60;;;5.90;98.00;;;;;;5040019;28;20034;-71
2021/01/22 02:00:33;;;;;;;494.83;22.90;;;5.90;98.00;;;;;;5040342;28;20084;-71
2021/01/22 02:02:59;;;;;;;844.35;35.10;;;5.90;98.00;;;;;;5040598;28;20048;-71
2021/01/22 02:05:24;;;;;;;722.72;26.00;;;5.80;98.00;;;;;;5040476;28;20391;-71
2021/01/22 02:07:50;;;;;;;568.10;24.00;;;5.60;98.00;;;;;;5040522;28;20026;-71
2021/01/22 02:10:16;;;;;;;656.10;25.98;;;5.60;98.00;;;;;;5040452;28;20410;-71
2021/01/22 02:12:43;;;;;;;43.28;2.03;;;5.60;98.00;;;;;;5040281;28;20303;-71
2021/01/22 02:15:13;;;;;;;3.10;0.80;;;5.50;98.00;;;;;;5040102;28;20029;-71
2021/01/22 02:17:42;;;;;;;21.63;1.25;;;5.50;98.00;;;;;;5040689;28;20040;-71
2021/01/22 02:20:23;;;;;;;174.10;5.40;;;5.50;98.00;;;;;;5040016;28;20314;-71
2021/01/22 02:22:53;;;;;;;665.25;26.33;;;5.60;98.00;;;;;;5038880;28;20038;-71
2021/01/22 02:25:23;;;;;;;461.85;16.83;;;5.60;98.00;;;;;;5040154;28;20067;-71
2021/01/22 02:27:49;;;;;;;57.45;3.03;;;5.60;98.00;;;;;;5039848;28;20126;-71
2021/01/22 02:30:15;;;;;;;1.92;1.52;;;5.60;98.00;;;;;;5040011;28;20401;-71
2021/01/22 02:32:46;;;;;;;4.80;2.70;;;5.60;98.00;;;;;;5039853;28;20029;-71
2021/01/22 02:35:14;;;;;;;15.02;2.70;;;5.60;98.00;;;;;;5039753;28;20021;-71
2021/01/22 02:37:43;;;;;;;4.93;3.38;;;5.70;98.00;;;;;;5039988;28;20049;-71
2021/01/22 02:40:10;;;;;;;6.45;3.50;;;5.70;98.00;;;;;;5039686;28;20034;-71
2021/01/22 02:42:39;;;;;;;7.05;5.07;;;5.70;98.00;;;;;;5039484;28;20029;-71
2021/01/22 02:45:12;;;;;;;8.32;5.28;;;5.70;98.00;;;;;;5039515;28;20088;-71
2021/01/22 02:47:41;;;;;;;9.00;5.70;;;5.80;98.00;;;;;;5039821;28;20071;-71
2021/01/22 02:50:07;;;;;;;10.18;6.93;;;5.90;98.00;;;;;;5039752;28;20049;-71
2021/01/22 02:52:36;;;;;;;10.50;7.57;;;5.90;98.00;;;;;;5039440;28;20429;-71
2021/01/22 02:55:05;;;;;;;6.25;4.72;;;5.90;98.00;;;;;;5039434;28;20409;-71
2021/01/22 02:57:30;;;;;;;8.57;4.55;;;5.90;98.00;;;;;;5039408;28;20030;-71
2021/01/22 03:00:28;;;;;;;4.32;3.58;;;5.90;98.00;;;;;;5039305;28;20033;-71
2021/01/22 03:03:40;;;;;;;12.02;5.75;;;5.80;98.00;;;;;;5038440;28;20041;-71
2021/01/22 03:06:11;;;;;;;9.13;4.20;;;5.80;98.00;;;;;;5037257;28;20051;-71
2021/01/22 03:08:41;;;;;;;11.05;6.90;;;5.90;98.00;;;;;;5036887;28;20026;-71
2021/01/22 03:11:09;;;;;;;10.00;7.10;;;5.90;98.00;;;;;;5038261;28;20044;-71
2021/01/22 03:13:35;;;;;;;17.33;9.52;;;5.90;98.00;;;;;;5039088;28;20022;-71
2021/01/22 03:16:01;;;;;;;14.60;8.82;;;5.90;98.00;;;;;;5039016;28;20072;-71
2021/01/22 03:18:27;;;;;;;16.92;8.57;;;5.90;98.00;;;;;;5039208;28;20029;-71
2021/01/22 03:20:53;;;;;;;11.13;9.02;;;5.90;98.00;;;;;;5039102;28;20584;-71
2021/01/22 03:23:19;;;;;;;18.48;8.52;;;6.00;98.00;;;;;;5039117;28;20064;-71
2021/01/22 03:25:45;;;;;;;12.77;9.82;;;5.90;98.00;;;;;;5039528;28;20398;-71
2021/01/22 03:28:11;;;;;;;16.75;10.93;;;5.90;98.00;;;;;;5038711;28;20042;-71
2021/01/22 03:30:38;;;;;;;14.00;10.30;;;5.90;98.00;;;;;;5037651;28;20429;-71
2021/01/22 03:33:04;;;;;;;15.85;10.93;;;5.90;98.00;;;;;;5037623;28;20114;-71
2021/01/22 03:35:30;;;;;;;12.13;8.05;;;5.90;98.00;;;;;;5038883;28;20092;-71
2021/01/22 03:37:57;;;;;;;3.85;2.70;;;6.00;98.00;;;;;;5038888;28;20041;-71
2021/01/22 03:40:24;;;;;;;2.30;1.30;;;6.00;98.00;;;;;;5038599;28;20053;-71
2021/01/22 03:42:50;;;;;;;2.13;1.10;;;6.00;98.00;;;;;;5038364;28;20326;-71
2021/01/22 03:45:16;;;;;;;1.60;0.50;;;6.00;98.00;;;;;;5038563;28;20104;-71
2021/01/22 03:47:43;;;;;;;0.88;0.45;;;6.00;98.00;;;;;;5037405;28;20456;-68
2021/01/22 03:50:10;;;;;;;0.98;0.50;;;5.90;98.00;;;;;;5038673;28;20017;-70
2021/01/22 03:52:36;;;;;;;0.60;0.30;;;5.80;98.00;;;;;;5038330;28;20087;-71
2021/01/22 03:55:05;;;;;;;1.45;0.52;;;5.80;98.00;;;;;;5038415;28;20068;-71
2021/01/22 03:57:30;;;;;;;6.43;2.03;;;5.70;98.00;;;;;;5038538;28;20094;-71
2021/01/22 03:59:56;;;;;;;17.20;6.53;;;5.70;98.00;;;;;;5038149;28;20017;-71
2021/01/22 04:02:21;;;;;;;6.70;4.47;;;5.70;98.00;;;;;;5038054;28;20410;-71
2021/01/22 04:04:48;;;;;;;8.40;5.72;;;5.70;98.00;;;;;;5037996;28;20018;-71
2021/01/22 04:07:14;;;;;;;3.60;3.08;;;5.70;98.00;;;;;;5038131;28;20030;-71
2021/01/22 04:09:40;;;;;;;3.35;2.55;;;5.80;98.00;;;;;;5038021;28;20028;-71
2021/01/22 04:12:06;;;;;;;3.58;2.40;;;5.90;98.00;;;;;;5037965;28;20032;-71
2021/01/22 04:14:32;;;;;;;2.42;1.80;;;5.90;98.00;;;;;;5038174;28;20033;-71
2021/01/22 04:16:59;;;;;;;3.25;2.03;;;6.00;98.00;;;;;;5038214;28;20345;-71
2021/01/22 04:19:25;;;;;;;2.15;1.83;;;6.00;98.00;;;;;;5037665;28;20100;-71
2021/01/22 04:21:51;;;;;;;1.75;0.98;;;6.00;98.00;;;;;;5036038;28;20030;-71
2021/01/22 04:24:17;;;;;;;1.90;1.38;;;6.00;98.00;;;;;;5037728;28;20049;-71
2021/01/22 04:26:46;;;;;;;9.43;2.38;;;6.10;98.00;;;;;;5037722;28;20347;-71
2021/01/22 04:29:11;;;;;;;5.07;2.92;;;6.20;98.00;;;;;;5037634;28;20037;-71
2021/01/22 04:31:39;;;;;;;3.45;2.30;;;6.20;98.00;;;;;;5037899;28;20071;-70
2021/01/22 04:34:04;;;;;;;8.38;2.50;;;6.10;98.00;;;;;;5037532;28;20025;-71
2021/01/22 04:36:30;;;;;;;2.45;2.15;;;6.00;98.00;;;;;;5037536;28;20354;-71
2021/01/22 04:38:56;;;;;;;2.67;2.25;;;6.00;98.00;;;;;;5037752;28;20109;-71
2021/01/22 04:41:22;;;;;;;5.45;2.90;;;6.00;98.00;;;;;;5037375;28;20036;-71
2021/01/22 04:43:48;;;;;;;4.35;2.90;;;6.10;98.00;;;;;;5037623;28;20373;-71
2021/01/22 04:46:15;;;;;;;3.40;2.88;;;6.10;98.00;;;;;;5037292;28;20037;-71
2021/01/22 04:48:41;;;;;;;5.45;3.88;;;6.00;98.00;;;;;;5037254;28;20095;-71
2021/01/22 04:51:08;;;;;;;5.03;3.40;;;5.90;98.00;;;;;;5037222;28;20467;-71
2021/01/22 04:53:35;;;;;;;480.88;19.48;;;5.90;98.00;;;;;;5037162;28;20112;-71
2021/01/22 04:56:01;;;;;;;986.67;43.65;;;5.90;98.00;;;;;;5037545;28;20036;-71
2021/01/22 04:58:33;;;;;;;627.70;25.30;;;5.80;98.00;;;;;;5037077;28;20033;-70
2021/01/22 05:01:00;;;;;;;5.80;4.57;;;5.80;98.00;;;;;;5037192;28;20417;-71
2021/01/22 05:03:29;;;;;;;5.22;4.35;;;5.80;98.00;;;;;;5036966;28;20021;-71
2021/01/22 05:05:58;;;;;;;7.10;4.93;;;5.90;98.00;;;;;;5037102;28;20017;-71
2021/01/22 05:08:25;;;;;;;7.85;5.20;;;6.00;98.00;;;;;;5037403;28;20095;-71
2021/01/22 05:10:51;;;;;;;7.20;5.88;;;6.00;98.00;;;;;;5036908;28;20022;-71
2021/01/22 05:13:16;;;;;;;7.43;4.82;;;5.90;98.00;;;;;;5036941;28;20028;-71
2021/01/22 05:16:02;;;;;;;4.82;4.00;;;5.90;98.00;;;;;;5036768;28;20410;-71
2021/01/22 05:18:30;;;;;;;3.20;2.37;;;5.90;98.00;;;;;;5036780;28;20025;-71
2021/01/22 05:20:56;;;;;;;2.63;1.90;;;5.90;98.00;;;;;;5035633;28;20275;-71
2021/01/22 05:23:33;;;;;;;3.50;2.40;;;5.90;98.00;;;;;;5035693;28;20029;-71
2021/01/22 05:26:04;;;;;;;5.70;2.47;;;6.00;98.00;;;;;;5037168;28;20060;-71
2021/01/22 05:28:40;;;;;;;4.55;3.17;;;6.00;98.00;;;;;;5036599;28;20080;-71
2021/01/22 05:31:10;;;;;;;3.63;3.10;;;6.10;98.00;;;;;;5036659;28;20064;-71
2021/01/22 05:33:37;;;;;;;3.42;2.78;;;6.10;98.00;;;;;;5036696;28;20025;-71
2021/01/22 05:36:22;;;;;;;4.00;3.28;;;6.10;98.00;;;;;;5036578;28;20125;-71
2021/01/22 05:38:49;;;;;;;4.70;1.88;;;6.10;98.00;;;;;;5036603;28;20029;-71
2021/01/22 05:41:15;;;;;;;2.33;1.83;;;6.10;98.00;;;;;;5036758;28;20033;-71
2021/01/22 05:43:41;;;;;;;3.15;2.10;;;6.10;98.00;;;;;;5036585;28;20025;-71
2021/01/22 05:46:16;;;;;;;2.67;1.80;;;6.20;98.00;;;;;;5036584;28;20029;-71
2021/01/22 05:48:43;;;;;;;3.33;1.92;;;6.20;98.00;;;;;;5036677;28;20028;-71
2021/01/22 05:51:10;;;;;;;2.35;1.77;;;6.30;98.00;;;;;;5036736;28;20025;-71
2021/01/22 05:53:47;;;;;;;2.20;1.55;;;6.30;98.00;;;;;;5036709;28;20026;-71
2021/01/22 05:56:14;;;;;;;3.80;2.00;;;6.40;98.00;;;;;;5036937;28;20052;-71
2021/01/22 05:58:41;;;;;;;2.53;1.98;;;6.40;98.00;;;;;;5036758;28;20040;-71
2021/01/22 06:01:14;;;;;;;2.75;2.00;;;6.40;98.00;;;;;;5036691;28;20034;-71
2021/01/22 06:03:45;;;;;;;3.92;1.77;;;6.30;98.00;;;;;;5036660;28;20017;-71
2021/01/22 06:06:11;;;;;;;3.97;2.10;;;6.40;98.00;;;;;;5036301;28;20048;-71
2021/01/22 06:08:54;;;;;;;3.67;2.50;;;6.40;98.00;;;;;;5036362;28;20017;-71
2021/01/22 06:11:22;;;;;;;2.95;2.17;;;6.40;98.00;;;;;;5035282;28;20032;-71
2021/01/22 06:13:52;;;;;;;2.97;2.35;;;6.50;98.00;;;;;;5036865;28;20044;-71
2021/01/22 06:16:25;;;;;;;2.30;2.10;;;6.40;98.00;;;;;;5036268;28;20034;-71
2021/01/22 06:19:04;;;;;;;2.60;2.10;;;6.40;98.00;;;;;;5036323;28;20099;-71
2021/01/22 06:21:33;;;;;;;4.43;2.38;;;6.30;98.00;;;;;;5036275;28;20302;-71
2021/01/22 06:24:01;;;;;;;2.72;2.38;;;6.30;98.00;;;;;;5036239;28;20024;-71
2021/01/22 06:26:29;;;;;;;3.67;2.70;;;6.20;98.00;;;;;;5035143;28;20033;-71
2021/01/22 06:28:59;;;;;;;3.10;2.50;;;6.20;98.00;;;;;;5036035;28;20045;-71
2021/01/22 06:31:27;;;;;;;4.75;2.60;;;6.30;98.00;;;;;;5036460;28;20105;-71
2021/01/22 06:33:54;;;;;;;3.75;2.58;;;6.30;98.00;;;;;;5036205;28;20361;-71
2021/01/22 06:36:21;;;;;;;2.65;2.28;;;6.30;98.00;;;;;;5036096;28;20097;-71
2021/01/22 06:38:48;;;;;;;3.85;2.70;;;6.30;98.00;;;;;;5035031;28;20414;-71
2021/01/22 06:41:15;;;;;;;4.63;2.30;;;6.30;98.00;;;;;;5035932;28;20029;-71
2021/01/22 06:43:41;;;;;;;2.65;2.20;;;6.30;98.00;;;;;;5037032;28;20067;-71
2021/01/22 06:46:10;;;;;;;4.22;2.50;;;6.30;98.00;;;;;;5039656;28;20029;-71
2021/01/22 06:49:03;;;;;;;3.08;2.53;;;6.30;98.00;;;;;;5039849;28;20360;-71
2021/01/22 06:51:33;;;;;;;6.88;2.80;;;6.30;98.00;;;;;;5039752;28;20322;-71
2021/01/22 06:54:06;;;;;;;3.28;2.35;;;6.30;98.00;;;;;;5039493;28;20022;-71
2021/01/22 06:56:35;;;;;;;3.22;2.35;;;6.30;98.00;;;;;;5039474;28;20029;-71
2021/01/22 06:59:19;;;;;;;5.75;2.65;;;6.30;98.00;;;;;;5039953;28;20022;-71
2021/01/22 07:01:45;;;;;;;4.22;2.60;;;6.30;98.00;;;;;;5039539;28;20028;-71
2021/01/22 07:04:32;;;;;;;2.75;2.25;;;6.30;98.00;;;;;;5039335;28;20075;-71
2021/01/22 07:07:03;;;;;;;4.03;2.35;;;6.30;98.00;;;;;;5038780;28;20042;-71
2021/01/22 07:09:45;;;;;;;2.45;2.17;;;6.40;98.00;;;;;;5039164;28;20028;-71
2021/01/22 07:12:37;;;;;;;3.53;2.00;;;6.40;98.00;;;;;;5039089;28;20056;-71
2021/01/22 07:15:25;;;;;;;2.60;2.17;;;6.40;98.00;;;;;;5038930;28;20029;-71
2021/01/22 07:17:55;;;;;;;3.58;2.60;;;6.40;98.00;;;;;;5039525;28;20158;-71
2021/01/22 07:20:21;;;;;;;3.42;2.50;;;6.40;98.00;;;;;;5039160;28;20417;-71
2021/01/22 07:23:00;;;;;;;5.05;4.05;;;6.40;98.00;;;;;;5039171;28;20030;-71
2021/01/22 07:25:36;;;;;;;4.10;3.25;;;6.40;98.00;;;;;;5037711;28;20071;-71
2021/01/22 07:28:05;;;;;;;;;;;6.40;98.00;;;;;;5039192;28;20056;-71
2021/01/22 07:30:39;;;;;;;3.30;2.53;;;6.40;98.00;;;;;;5039047;28;20259;-71
2021/01/22 07:33:26;;;;;;;2.83;2.55;;;6.50;98.00;;;;;;5038711;28;20022;-71
2021/01/22 07:36:10;;;;;;;3.95;3.00;;;6.40;98.00;;;;;;5038726;28;20033;-71
2021/01/22 07:38:38;;;;;;;3.70;2.40;;;6.40;98.00;;;;;;5038942;28;20018;-71
2021/01/22 07:41:06;;;;;;;4.07;2.38;;;6.50;98.00;;;;;;5038548;28;20030;-71
2021/01/22 07:43:32;;;;;;;3.05;2.10;;;6.50;98.00;;;;;;5038524;28;20025;-71
2021/01/22 07:46:14;;;;;;;2.78;2.22;;;6.60;98.00;;;;;;5037422;28;20037;-71
2021/01/22 07:48:40;;;;;;;3.47;2.30;;;6.60;98.00;;;;;;5038635;28;20021;-71
2021/01/22 07:51:37;;;;;;;5.38;4.20;;;6.50;98.00;;;;;;5038382;28;20034;-71
2021/01/22 07:54:04;;;;;;;4.22;2.30;;;6.50;98.00;;;;;;5037987;28;20045;-71
2021/01/22 07:56:33;;;;;;;2.45;1.95;;;6.50;98.00;;;;;;5038396;28;20061;-71
2021/01/22 07:58:59;;;;;;;15.35;2.20;;;6.60;98.00;;;;;;5038272;28;20040;-71
2021/01/22 08:01:25;;;;;;;313.55;10.43;;;6.60;98.00;;;;;;5038080;28;20021;-71
2021/01/22 08:03:51;;;;;;;553.00;25.70;;;6.70;98.00;;;;;;5038250;28;20323;-71
2021/01/22 08:06:17;;;;;;;513.72;14.95;;;6.70;98.00;;;;;;5038068;28;20021;-71
2021/01/22 08:08:42;;;;;;;569.42;20.88;;;6.70;98.00;;;;;;5038329;28;20401;-71
2021/01/22 08:11:19;;;;;;;459.58;14.88;;;6.60;98.00;;;;;;5038292;28;20032;-71
2021/01/22 08:13:45;;;;;;;239.70;9.63;;;6.60;98.00;;;;;;5037991;28;20075;-71
2021/01/22 08:16:11;;;;;;;306.73;12.40;;;6.60;98.00;;;;;;5037899;28;20489;-71
2021/01/22 08:18:38;;;;;;;524.08;17.38;;;6.50;98.00;;;;;;5037886;28;20088;-71
2021/01/22 08:21:04;;;;;;;25.60;2.13;;;6.50;98.00;;;;;;5037707;28;20021;-71
2021/01/22 08:23:34;;;;;;;409.60;12.38;;;6.50;98.00;;;;;;5037690;28;20030;-71
2021/01/22 08:25:59;;;;;;;14.85;6.47;;;6.50;98.00;;;;;;5037712;28;20052;-71
2021/01/22 08:28:28;;;;;;;21.17;4.65;;;6.50;98.00;;;;;;5037570;28;20053;-71
2021/01/22 08:30:54;;;;;;;10.82;3.75;;;6.50;98.00;;;;;;5036543;28;20018;-71
2021/01/22 08:33:25;;;;;;;91.30;5.60;;;6.60;98.00;;;;;;5037596;28;20030;-71
2021/01/22 08:35:51;;;;;;;6.53;3.10;;;6.60;98.00;;;;;;5037610;28;20096;-71
2021/01/22 08:38:17;;;;;;;2.20;1.70;;;6.70;98.00;;;;;;5037829;28;20049;-71
2021/01/22 08:40:46;;;;;;;1.42;1.20;;;6.70;98.00;;;;;;5036426;28;20014;-71
2021/01/22 08:43:12;;;;;;;2.20;1.42;;;6.70;98.00;;;;;;5037512;28;20440;-71
2021/01/22 08:45:42;;;;;;;2.35;1.45;;;6.70;98.00;;;;;;5037438;28;20033;-71
2021/01/22 08:48:09;;;;;;;2.80;1.10;;;6.80;98.00;;;;;;5036571;28;20032;-71
2021/01/22 08:50:35;;;;;;;2.30;1.30;;;6.80;98.00;;;;;;5037398;28;20071;-71
2021/01/22 08:53:11;;;;;;;2.95;1.45;;;6.80;98.00;;;;;;5037213;28;20406;-71
2021/01/22 08:55:37;;;;;;;3.13;1.40;;;6.80;98.00;;;;;;5037520;28;20405;-71
2021/01/22 08:58:04;;;;;;;2.50;1.52;;;6.80;98.00;;;;;;5037144;28;20025;-71
2021/01/22 09:00:30;;;;;;;2.55;1.20;;;6.80;98.00;;;;;;5037233;28;20025;-71
2021/01/22 09:02:57;;;;;;;3.40;1.25;;;6.80;98.00;;;;;;5037058;28;20028;-71
2021/01/22 09:05:23;;;;;;;3.60;1.70;;;6.80;98.00;;;;;;5036928;28;20036;-71
2021/01/22 09:08:09;;;;;;;2.42;1.30;;;6.90;98.00;;;;;;5035414;28;20021;-71
2021/01/22 09:10:39;;;;;;;3.97;1.20;;;6.90;98.00;;;;;;5036975;28;20029;-71
2021/01/22 09:13:15;;;;;;;4.13;1.33;;;6.80;98.00;;;;;;5037049;28;20377;-71
2021/01/22 09:15:42;;;;;;;1.85;1.38;;;6.80;98.00;;;;;;5036823;28;20041;-71
2021/01/22 09:18:22;;;;;;;1.98;1.25;;;7.00;98.00;;;;;;5036792;28;20028;-70
2021/01/22 09:21:05;;;;;;;3.20;1.45;;;7.10;98.00;;;;;;5036992;28;20029;-71
2021/01/22 09:23:38;;;;;;;1.85;1.20;;;7.00;98.00;;;;;;5036794;28;20398;-70
2021/01/22 09:26:04;;;;;;;1.77;1.10;;;7.00;98.00;;;;;;5037160;28;20037;-70
2021/01/22 09:28:30;;;;;;;1500.72;81.78;;;7.00;98.00;;;;;;5036614;28;20087;-70
2021/01/22 09:30:56;;;;;;;983.38;38.67;;;7.10;98.00;;;;;;5036926;28;20104;-70
2021/01/22 09:33:21;;;;;;;521.40;21.55;;;6.90;98.00;;;;;;5036651;28;20325;-70
2021/01/22 09:35:47;;;;;;;292.20;11.38;;;6.80;98.00;;;;;;5036604;28;20028;-71
2021/01/22 09:38:13;;;;;;;1412.13;59.05;;;6.80;98.00;;;;;;5036941;28;20033;-71
2021/01/22 09:40:39;;;;;;;1117.85;47.58;;;6.80;98.00;;;;;;5035519;28;20026;-70
2021/01/22 09:43:04;;;;;;;605.47;23.30;;;6.70;98.00;;;;;;5036739;28;20084;-71
2021/01/22 09:45:30;;;;;;;339.98;12.52;;;6.60;98.00;;;;;;5036582;28;20104;-71
2021/01/22 09:47:56;;;;;;;4.10;2.05;;;6.60;98.00;;;;;;5037014;28;20022;-71
2021/01/22 09:50:22;;;;;;;307.30;9.98;;;6.60;98.00;;;;;;5036468;28;20373;-71
2021/01/22 09:52:47;;;;;;;160.85;5.75;;;6.60;98.00;;;;;;5035454;28;20034;-70
2021/01/22 09:55:15;;;;;;;2.25;1.55;;;6.60;98.00;;;;;;5036631;28;20037;-71
2021/01/22 09:57:41;;;;;;;2.22;1.13;;;6.60;98.00;;;;;;5036434;28;20052;-71
2021/01/22 10:00:09;;;;;;;4.82;1.27;;;6.70;98.00;;;;;;5036621;28;20036;-71
2021/01/22 10:02:35;;;;;;;2.03;0.90;;;6.90;98.00;;;;;;5036604;28;20028;-71
2021/01/22 10:05:03;;;;;;;1550.78;65.88;;;7.00;98.00;;;;;;5036337;28;20013;-71
2021/01/22 10:07:29;;;;;;;251.80;10.02;;;7.10;98.00;;;;;;5036463;28;20026;-71
2021/01/22 10:09:55;;;;;;;2.25;1.98;;;7.00;98.00;;;;;;5038296;28;20017;-71
2021/01/22 10:12:20;;;;;;;9.25;1.92;;;6.90;98.00;;;;;;5047393;28;20032;-71
2021/01/22 10:14:48;;;;;;;2.00;1.55;;;6.90;98.00;;;;;;5056172;28;20025;-71
2021/01/22 10:17:14;;;;;;;2.83;1.98;;;6.80;98.00;;;;;;5056571;28;20029;-71
2021/01/22 10:19:39;;;;;;;2.08;0.88;;;6.80;98.00;;;;;;5060148;28;20025;-71
2021/01/22 10:22:05;;;;;;;2.75;0.90;;;6.90;98.00;;;;;;5059983;28;20086;-71
2021/01/22 10:24:31;;;;;;;1052.20;47.45;;;7.00;98.00;;;;;;5060210;28;20017;-71
2021/01/22 10:26:57;;;;;;;259.65;10.10;;;7.10;98.00;;;;;;5059722;28;20407;-71
2021/01/22 10:29:23;;;;;;;2.67;1.50;;;7.00;98.00;;;;;;5059958;28;20021;-71
2021/01/22 10:31:49;;;;;;;3.22;1.30;;;7.00;98.00;;;;;;5059867;28;20321;-71
2021/01/22 10:34:15;;;;;;;3.28;0.90;;;7.10;98.00;;;;;;5059853;28;20074;-71
2021/01/22 10:36:41;;;;;;;1.75;0.73;;;7.10;98.00;;;;;;5059904;28;20159;-70
2021/01/22 10:39:07;;;;;;;1.38;0.70;;;7.30;98.00;;;;;;5059952;28;20104;-71
2021/01/22 10:41:33;;;;;;;1.65;0.90;;;7.40;98.00;;;;;;5059636;28;20029;-71
2021/01/22 10:43:59;;;;;;;2.67;0.82;;;7.60;98.00;;;;;;5059634;28;20417;-71
2021/01/22 10:46:25;;;;;;;3.42;0.80;;;7.60;98.00;;;;;;5059588;28;20139;-71
2021/01/22 10:48:50;;;;;;;1.23;0.70;;;7.70;98.00;;;;;;5059545;28;20455;-71
2021/01/22 10:51:16;;;;;;;0.82;0.52;;;7.80;98.00;;;;;;5059468;28;20032;-71
2021/01/22 10:53:42;;;;;;;1.13;0.70;;;7.80;98.00;;;;;;5059743;28;20020;-71
2021/01/22 10:56:08;;;;;;;1.23;0.70;;;7.90;98.00;;;;;;5059809;28;20027;-71
2021/01/22 10:58:33;;;;;;;1.58;0.85;;;7.90;98.00;;;;;;5059392;28;20029;-71
2021/01/22 11:00:59;;;;;;;0.65;0.50;;;8.00;98.00;;;;;;5059240;28;20082;-71
2021/01/22 11:03:28;;;;;;;0.63;0.50;;;8.00;98.00;;;;;;5059540;28;20028;-71
2021/01/22 11:05:54;;;;;;;2.28;0.55;;;8.00;98.00;;;;;;5059198;28;20025;-71
2021/01/22 11:08:20;;;;;;;1.23;0.60;;;8.00;98.00;;;;;;5059221;28;20017;-71
2021/01/22 11:10:45;;;;;;;0.40;0.30;;;7.90;97.80;;;;;;5059076;28;20072;-71
2021/01/22 11:13:11;;;;;;;0.68;0.40;;;7.90;98.00;;;;;;5059342;28;20025;-70
2021/01/22 11:15:37;;;;;;;0.50;0.32;;;7.90;98.00;;;;;;5059246;28;20029;-71
2021/01/22 11:18:03;;;;;;;0.70;0.40;;;8.00;98.00;;;;;;5059260;28;20096;-71
2021/01/22 11:20:29;;;;;;;581.97;24.40;;;8.10;98.00;;;;;;5058957;28;20154;-71
2021/01/22 11:22:55;;;;;;;904.25;33.33;;;8.20;98.00;;;;;;5058805;28;20415;-71
2021/01/22 11:25:23;;;;;;;642.85;22.27;;;8.30;98.00;;;;;;5059109;28;20421;-71
2021/01/22 11:27:50;;;;;;;1114.75;46.20;;;8.20;97.90;;;;;;5058602;28;20049;-71
2021/01/22 11:30:16;;;;;;;1399.30;54.17;;;8.10;97.20;;;;;;5058242;28;20413;-71
2021/01/22 11:32:42;;;;;;;1122.20;37.08;;;7.90;96.30;;;;;;5059252;28;20029;-71
2021/01/22 11:35:10;;;;;;;1357.50;42.03;;;7.60;96.70;;;;;;5058717;28;20024;-71
2021/01/22 11:37:40;;;;;;;1002.25;31.05;;;7.60;97.00;;;;;;5058617;28;20029;-71
2021/01/22 11:40:07;;;;;;;1205.75;34.80;;;7.30;96.70;;;;;;5058564;28;20021;-72
2021/01/22 11:42:33;;;;;;;1149.20;37.38;;;7.00;97.00;;;;;;5058681;28;20052;-71
2021/01/22 11:44:59;;;;;;;1249.30;39.72;;;6.80;98.00;;;;;;5058510;28;20024;-71
2021/01/22 11:47:25;;;;;;;981.13;30.52;;;6.60;98.00;;;;;;5058778;28;20028;-71
2021/01/22 11:49:51;;;;;;;893.17;26.65;;;6.60;98.00;;;;;;5058385;28;20021;-71
2021/01/22 11:52:17;;;;;;;499.25;19.77;;;6.60;98.00;;;;;;5058591;28;20029;-71
2021/01/22 11:54:44;;;;;;;10.95;3.42;;;6.70;98.00;;;;;;5058385;28;20416;-71
2021/01/22 11:57:09;;;;;;;1.40;0.80;;;6.90;98.00;;;;;;5058535;28;20029;-71
2021/01/22 11:59:35;;;;;;;1.00;0.50;;;7.10;98.00;;;;;;5058444;28;20036;-71
2021/01/22 12:02:01;;;;;;;1.33;0.85;;;7.40;98.00;;;;;;5058154;28;20029;-71
2021/01/22 12:04:27;;;;;;;2.10;0.63;;;7.60;98.00;;;;;;5058209;28;20028;-71
2021/01/22 12:06:53;;;;;;;0.77;0.52;;;7.80;98.00;;;;;;5058316;28;20025;-71
2021/01/22 12:09:19;;;;;;;2.28;1.05;;;7.90;98.00;;;;;;5056955;28;20025;-71
2021/01/22 12:11:45;;;;;;;1.50;0.82;;;7.90;98.00;;;;;;5058005;28;20100;-71
2021/01/22 12:14:11;;;;;;;1.48;0.80;;;7.90;98.00;;;;;;5057712;28;20159;-71
2021/01/22 12:16:36;;;;;;;1.63;0.90;;;7.90;98.00;;;;;;5057927;28;20025;-71
2021/01/22 12:19:02;;;;;;;1.25;0.90;;;8.00;98.00;;;;;;5057839;28;20087;-71
2021/01/22 12:21:28;;;;;;;2.65;1.00;;;8.00;98.00;;;;;;5057714;28;20070;-71
2021/01/22 12:23:53;;;;;;;2.30;0.95;;;8.00;98.00;;;;;;5056707;28;20028;-71
2021/01/22 12:26:19;;;;;;;2.38;0.70;;;8.00;98.00;;;;;;5056813;28;20032;-71
2021/01/22 12:28:46;;;;;;;385.75;14.05;;;8.00;98.00;;;;;;5057474;28;20441;-71
2021/01/22 12:31:12;;;;;;;960.13;36.67;;;8.00;98.00;;;;;;5057571;28;20029;-68
2021/01/22 12:33:38;;;;;;;736.40;30.77;;;7.70;97.20;;;;;;5057546;28;20039;-69
2021/01/22 12:36:05;;;;;;;436.55;14.48;;;7.40;97.20;;;;;;5057481;28;20363;-69
2021/01/22 12:38:30;;;;;;;2.30;1.35;;;7.30;97.60;;;;;;5057477;28;20082;-69
2021/01/22 12:40:56;;;;;;;3.72;1.90;;;7.20;98.00;;;;;;5056541;28;20025;-69
2021/01/22 12:43:22;;;;;;;1.67;1.27;;;7.30;98.00;;;;;;5057365;28;20025;-68
2021/01/22 12:45:48;;;;;;;2.60;1.48;;;7.40;98.00;;;;;;5057294;28;20364;-70
2021/01/22 12:48:14;;;;;;;3.03;1.70;;;7.40;98.00;;;;;;5057323;28;20112;-70
2021/01/22 12:50:41;;;;;;;4.32;2.25;;;7.40;98.00;;;;;;5057245;28;20021;-70
2021/01/22 12:53:06;;;;;;;4.35;2.40;;;7.40;98.00;;;;;;5057496;28;20372;-70
2021/01/22 12:55:32;;;;;;;2.85;2.17;;;7.50;98.00;;;;;;5056185;28;20167;-69